Terminal Aerodrome Forecast
Issued by NWS Caribou, ME

Home | Current Version | Previous Version | Text Only | Print | Product List | Glossary On
Versions: 1 2 3 4 5 6 7 8 9 10 11 12 13 14 15 16 17 18 19
000
FTUS41 KCAR 232300
TAFBGR
TAF
KBGR 232334Z 2400/2424 32015KT P6SM SCT025 BKN040 OVC090
      TEMPO 2400/2402 -RA OVC025
     FM240200 33014KT 5SM -RA BR OVC015
     FM240900 33014KT P6SM OVC025
     FM241500 34019G30KT P6SM OVC025
     FM241800 34022G32KT P6SM SCT025 OVC035=

USA.gov is the U.S. government's official web portal to all federal, state and local government web resources and services.